Minneapolis, Minnesota
Current Conditions -  °F | °C
As of 1:53 AM on Saturday 25 Oct 2014 (Local Time) from KMSP Reporting Station
Broken Clouds Broken Clouds  
Wind Chill: 16°   Ceiling: 13000
Heat Index: 16°   Visibility: 10mi
Dew Point:   Wind: 12mph
Humidity: 49%   Direction: 310°NW
Pressure: 29.92"   Gusts: NA
Location:  44.98°N, 93.26°W
Report Text: KMSP 250653Z 31010KT 10SM BKN130 16/05 A2992 RMK AO2 SLP131 T01560050
Loading
Personal Weather Stations






























Interactive Weather Map
Tropical Storm Tracking
New forecast layout! Learn more

10-Day Weather Forecast

Advertisements
Track Severe Weather on mobile